Time;durP1;ratioP1;P1;durP2;ratioP2;P2;SDS_P1;SDS_P2;PMS_P1;PMS_P2;Temp;Humidity;BMP_temperature;BMP_pressure;BME280_temperature;BME280_humidity;BME280_pressure;Samples;Min_cycle;Max_cycle;Signal;HPM_P1;HPM_P2
2021/06/01 00:02:00;;;;;;;5.53;5.03;;;18.30;53.90;;;;;;5023728;28;20800;-76
2021/06/01 00:04:26;;;;;;;6.53;4.93;;;18.30;54.00;;;;;;5024501;28;20238;-76
2021/06/01 00:06:51;;;;;;;4.50;4.20;;;18.20;54.20;;;;;;5027570;28;20197;-76
2021/06/01 00:09:20;;;;;;;5.10;4.67;;;18.20;54.20;;;;;;5021314;28;20335;-76
2021/06/01 00:11:47;;;;;;;5.23;4.73;;;18.20;54.40;;;;;;5026068;28;20728;-76
2021/06/01 00:14:13;;;;;;;5.83;5.33;;;18.20;54.50;;;;;;5021872;28;20463;-77
2021/06/01 00:16:39;;;;;;;5.97;5.30;;;18.20;54.50;;;;;;5026778;28;21023;-77
2021/06/01 00:19:07;;;;;;;5.80;5.27;;;18.20;54.70;;;;;;5025220;28;20499;-77
2021/06/01 00:21:34;;;;;;;5.33;4.90;;;18.20;54.70;;;;;;5027824;28;20552;-77
2021/06/01 00:24:00;;;;;;;5.40;4.97;;;18.10;54.60;;;;;;5024821;28;20558;-77
2021/06/01 00:26:25;;;;;;;5.10;4.70;;;18.10;54.90;;;;;;5022221;28;20586;-76
2021/06/01 00:28:51;;;;;;;5.60;4.73;;;18.10;55.00;;;;;;5024578;28;20224;-77
2021/06/01 00:31:17;;;;;;;4.80;4.40;;;18.10;54.90;;;;;;5025697;28;20191;-77
2021/06/01 00:33:43;;;;;;;4.80;4.40;;;18.00;54.70;;;;;;5027866;28;20492;-77
2021/06/01 00:36:09;;;;;;;4.93;4.53;;;18.10;54.80;;;;;;5021856;28;20509;-76
2021/06/01 00:38:35;;;;;;;5.00;4.60;;;18.00;54.80;;;;;;5023561;28;20219;-76
2021/06/01 00:41:01;;;;;;;5.30;4.80;;;18.00;54.60;;;;;;5027323;28;20204;-76
2021/06/01 00:43:27;;;;;;;5.90;4.77;;;18.00;54.70;;;;;;5023525;28;20529;-76
2021/06/01 00:45:53;;;;;;;4.83;4.43;;;17.90;54.70;;;;;;5026734;28;20870;-76
2021/06/01 00:48:18;;;;;;;4.93;4.53;;;17.90;55.00;;;;;;5024476;28;20295;-76
2021/06/01 00:50:44;;;;;;;5.00;4.60;;;17.90;55.00;;;;;;5024059;28;20193;-76
2021/06/01 00:53:10;;;;;;;5.07;4.60;;;17.80;54.90;;;;;;5025797;28;20217;-76
2021/06/01 00:55:36;;;;;;;5.00;4.60;;;17.80;55.00;;;;;;5023741;28;20196;-76
2021/06/01 00:58:02;;;;;;;5.17;4.77;;;17.80;55.00;;;;;;5023753;28;20558;-76
2021/06/01 01:02:57;;;;;;;5.43;4.63;;;17.70;55.00;;;;;;5024264;28;20473;-76
2021/06/01 01:05:26;;;;;;;4.90;4.30;;;17.70;55.20;;;;;;5026041;28;20494;-76
2021/06/01 01:08:18;;;;;;;5.20;4.70;;;17.70;55.50;;;;;;5028043;28;20203;-76
2021/06/01 01:10:47;;;;;;;5.17;4.77;;;17.70;55.50;;;;;;5024163;28;20901;-76
2021/06/01 01:13:14;;;;;;;5.17;4.67;;;17.70;55.50;;;;;;5023230;28;20831;-76
2021/06/01 01:15:41;;;;;;;4.93;4.53;;;17.70;55.40;;;;;;5023075;28;20438;-76
2021/06/01 01:18:16;;;;;;;4.93;4.63;;;17.60;55.50;;;;;;5023165;28;20471;-77
2021/06/01 01:21:28;;;;;;;5.07;4.67;;;17.60;55.40;;;;;;5022084;28;21868;-77
2021/06/01 01:24:32;;;;;;;5.20;4.80;;;17.60;55.60;;;;;;5024068;28;20485;-77
2021/06/01 01:27:28;;;;;;;4.97;4.20;;;17.50;55.50;;;;;;5024560;28;20426;-77
2021/06/01 01:29:55;;;;;;;4.80;4.40;;;17.40;55.40;;;;;;5025705;28;20486;-77
2021/06/01 01:32:40;;;;;;;4.37;4.00;;;17.40;55.30;;;;;;5022349;28;20431;-77
2021/06/01 01:35:08;;;;;;;4.40;3.97;;;17.40;55.40;;;;;;5020584;28;21078;-77
2021/06/01 01:37:36;;;;;;;6.33;4.80;;;17.40;55.40;;;;;;5023234;28;20553;-77
2021/06/01 01:40:06;;;;;;;5.17;4.77;;;17.40;55.60;;;;;;5021188;28;20814;-76
2021/06/01 01:42:54;;;;;;;4.70;4.37;;;17.40;55.60;;;;;;5023398;28;20471;-77
2021/06/01 01:45:31;;;;;;;7.43;4.20;;;17.40;55.60;;;;;;5021279;28;20481;-77
2021/06/01 01:50:47;;;;;;;4.93;4.43;;;17.30;55.60;;;;;;5022777;28;20477;-77
2021/06/01 01:53:16;;;;;;;4.80;4.33;;;17.30;55.70;;;;;;5024253;28;20430;-77
2021/06/01 01:55:46;;;;;;;5.10;4.70;;;17.20;55.80;;;;;;5022316;28;20443;-77
2021/06/01 01:58:13;;;;;;;5.27;4.80;;;17.20;55.90;;;;;;5023354;28;20466;-77
2021/06/01 02:00:39;;;;;;;4.77;4.37;;;17.10;55.90;;;;;;5026216;28;20441;-77
2021/06/01 02:03:05;;;;;;;4.60;4.30;;;17.10;55.90;;;;;;5022117;28;20961;-77
2021/06/01 02:05:31;;;;;;;4.80;4.40;;;17.00;55.90;;;;;;5023540;28;20501;-77
2021/06/01 02:07:57;;;;;;;5.30;4.80;;;17.00;55.90;;;;;;5026428;28;20961;-77
2021/06/01 02:10:23;;;;;;;5.57;4.60;;;17.00;56.00;;;;;;5023951;28;20403;-77
2021/06/01 02:12:49;;;;;;;5.10;4.70;;;17.00;56.10;;;;;;5023352;28;20458;-76
2021/06/01 02:15:14;;;;;;;6.10;4.43;;;16.90;56.10;;;;;;5023593;28;20199;-77
2021/06/01 02:17:40;;;;;;;4.77;4.37;;;16.90;56.30;;;;;;5024620;28;21071;-77
2021/06/01 02:20:08;;;;;;;4.77;4.37;;;16.90;56.40;;;;;;5023294;28;20246;-76
2021/06/01 02:25:14;;;;;;;4.97;4.57;;;16.80;56.60;;;;;;5022154;28;20997;-77
2021/06/01 02:28:11;;;;;;;5.23;4.73;;;16.80;56.60;;;;;;5022266;28;21022;-77
2021/06/01 02:31:17;;;;;;;5.10;4.70;;;16.70;56.70;;;;;;5026444;28;20437;-77
2021/06/01 02:33:45;;;;;;;4.93;4.53;;;16.70;57.00;;;;;;5002415;28;20467;-77
2021/06/01 02:36:15;;;;;;;4.50;4.20;;;16.70;57.10;;;;;;5017958;28;20427;-77
2021/06/01 02:38:41;;;;;;;4.90;4.50;;;16.60;57.30;;;;;;5024453;28;20475;-77
2021/06/01 02:41:07;;;;;;;4.97;4.50;;;16.60;57.30;;;;;;5024616;28;20767;-77
2021/06/01 02:43:34;;;;;;;5.00;4.60;;;16.60;57.50;;;;;;5025030;28;20433;-77
2021/06/01 02:46:00;;;;;;;4.73;4.33;;;16.60;57.50;;;;;;5029177;28;20991;-77
2021/06/01 02:48:27;;;;;;;4.73;4.33;;;16.50;57.60;;;;;;5027430;28;20470;-77
2021/06/01 02:50:57;;;;;;;5.80;4.60;;;16.50;57.70;;;;;;5028190;28;20438;-77
2021/06/01 02:53:24;;;;;;;5.23;4.83;;;16.50;57.70;;;;;;5027480;28;20538;-77
2021/06/01 02:55:51;;;;;;;5.40;4.93;;;16.50;58.00;;;;;;5026573;28;20942;-77
2021/06/01 02:58:17;;;;;;;5.30;4.80;;;16.50;58.20;;;;;;5026550;28;20451;-76
2021/06/01 03:00:44;;;;;;;5.07;4.67;;;16.50;57.80;;;;;;5028529;28;20414;-76
2021/06/01 03:03:12;;;;;;;5.20;4.70;;;16.40;57.80;;;;;;5026224;28;20476;-77
2021/06/01 03:05:40;;;;;;;4.83;4.43;;;16.40;57.70;;;;;;5029031;28;20492;-77
2021/06/01 03:08:15;;;;;;;5.03;4.63;;;16.40;57.60;;;;;;5027930;28;20490;-77
2021/06/01 03:10:41;;;;;;;4.97;4.57;;;16.40;58.00;;;;;;5026814;28;20921;-77
2021/06/01 03:13:07;;;;;;;6.80;4.77;;;16.40;58.20;;;;;;5028562;28;20454;-77
2021/06/01 03:15:32;;;;;;;5.27;4.83;;;16.40;58.40;;;;;;5030438;28;20260;-77
2021/06/01 03:17:58;;;;;;;6.10;4.73;;;16.40;58.50;;;;;;5024381;28;20475;-77
2021/06/01 03:20:24;;;;;;;5.40;4.90;;;16.30;58.60;;;;;;5029763;28;20803;-77
2021/06/01 03:22:49;;;;;;;5.10;4.70;;;16.30;58.90;;;;;;5027319;28;20232;-77
2021/06/01 03:25:15;;;;;;;6.17;5.10;;;16.30;59.00;;;;;;5023410;28;20193;-76
2021/06/01 03:27:41;;;;;;;6.77;5.27;;;16.30;59.00;;;;;;5029319;28;20216;-77
2021/06/01 03:30:09;;;;;;;5.00;4.60;;;16.20;59.00;;;;;;5024449;28;20437;-77
2021/06/01 03:32:34;;;;;;;5.40;4.90;;;16.20;59.40;;;;;;5020448;28;20821;-76
2021/06/01 03:35:00;;;;;;;5.57;5.17;;;16.20;59.90;;;;;;5027918;28;20427;-76
2021/06/01 03:37:26;;;;;;;5.93;5.30;;;16.10;59.50;;;;;;5025989;28;20884;-76
2021/06/01 03:39:52;;;;;;;5.07;4.67;;;16.10;59.60;;;;;;5025914;28;20212;-76
2021/06/01 03:42:18;;;;;;;5.43;4.93;;;16.00;59.70;;;;;;5027458;28;20206;-76
2021/06/01 03:44:44;;;;;;;5.77;5.27;;;16.00;60.00;;;;;;5027149;28;20427;-76
2021/06/01 03:47:10;;;;;;;8.33;5.30;;;16.00;59.90;;;;;;5024131;28;20208;-77
2021/06/01 03:49:36;;;;;;;8.07;5.10;;;16.00;60.00;;;;;;5026253;28;20776;-77
2021/06/01 03:52:07;;;;;;;5.67;5.17;;;16.00;59.90;;;;;;5026143;28;20482;-76
2021/06/01 03:54:33;;;;;;;5.67;5.17;;;16.00;60.00;;;;;;5025163;28;20444;-76
2021/06/01 03:56:59;;;;;;;5.80;5.30;;;16.00;60.00;;;;;;5028145;28;20430;-76
2021/06/01 03:59:25;;;;;;;5.00;4.60;;;16.00;60.40;;;;;;5026366;28;20462;-77
2021/06/01 04:01:50;;;;;;;5.07;4.63;;;16.00;60.30;;;;;;5026459;28;20212;-77
2021/06/01 04:04:16;;;;;;;5.70;4.30;;;15.90;60.50;;;;;;5027997;28;20188;-77
2021/06/01 04:06:42;;;;;;;5.43;4.90;;;16.00;60.60;;;;;;5025543;28;20327;-77
2021/06/01 04:09:07;;;;;;;6.00;5.40;;;16.00;60.40;;;;;;5024704;28;20216;-77
2021/06/01 04:11:33;;;;;;;6.30;5.30;;;16.00;60.40;;;;;;5026274;28;20222;-77
2021/06/01 04:13:58;;;;;;;6.13;5.30;;;15.90;60.50;;;;;;5025710;28;20227;-77
2021/06/01 04:16:24;;;;;;;5.30;4.90;;;16.00;60.70;;;;;;5025323;28;20246;-76
2021/06/01 04:18:50;;;;;;;5.40;4.77;;;16.00;60.50;;;;;;5025879;28;20238;-77
2021/06/01 04:21:15;;;;;;;5.60;5.20;;;16.00;60.00;;;;;;5025426;28;20270;-77
2021/06/01 04:23:41;;;;;;;5.40;4.57;;;16.00;60.00;;;;;;5024659;28;20180;-77
2021/06/01 04:26:07;;;;;;;5.40;4.90;;;16.00;60.10;;;;;;5024563;28;20658;-77
2021/06/01 04:28:33;;;;;;;4.97;4.47;;;16.10;59.90;;;;;;5026351;28;20490;-77
2021/06/01 04:30:58;;;;;;;5.70;4.60;;;16.10;59.80;;;;;;5027128;28;20188;-76
2021/06/01 04:33:24;;;;;;;5.00;4.60;;;16.00;60.50;;;;;;5021612;28;20235;-76
2021/06/01 04:35:49;;;;;;;6.33;4.80;;;16.00;59.90;;;;;;5024905;28;20184;-76
2021/06/01 04:38:15;;;;;;;7.07;4.73;;;16.00;59.90;;;;;;5027138;28;20575;-75
2021/06/01 04:40:41;;;;;;;5.10;4.60;;;16.00;59.90;;;;;;5023080;28;20267;-76
2021/06/01 04:43:07;;;;;;;5.13;4.70;;;16.00;60.00;;;;;;5024250;28;20215;-76
2021/06/01 04:45:33;;;;;;;5.73;5.10;;;16.00;59.90;;;;;;5023493;28;20199;-76
2021/06/01 04:47:59;;;;;;;5.07;4.40;;;16.10;60.00;;;;;;5022963;28;20451;-76
2021/06/01 04:50:25;;;;;;;5.43;4.93;;;16.20;60.20;;;;;;5027371;28;20198;-76
2021/06/01 04:52:50;;;;;;;7.60;5.27;;;16.20;59.90;;;;;;5024566;28;20497;-76
2021/06/01 04:55:16;;;;;;;5.43;4.57;;;16.20;59.90;;;;;;5022331;28;20431;-76
2021/06/01 04:57:42;;;;;;;5.20;4.80;;;16.20;59.80;;;;;;5025224;28;20274;-76
2021/06/01 05:00:09;;;;;;;5.37;4.87;;;16.20;59.80;;;;;;5026090;28;20274;-76
2021/06/01 05:02:35;;;;;;;6.40;5.40;;;16.20;59.70;;;;;;5023842;28;20221;-76
2021/06/01 05:05:01;;;;;;;5.17;4.70;;;16.10;60.00;;;;;;5025950;28;20434;-76
2021/06/01 05:07:26;;;;;;;5.80;5.30;;;16.10;60.20;;;;;;5023323;28;20208;-76
2021/06/01 05:09:52;;;;;;;4.80;4.40;;;16.10;60.10;;;;;;5023959;28;20213;-76
2021/06/01 05:12:18;;;;;;;5.40;4.90;;;16.30;60.50;;;;;;5026549;28;20185;-76
2021/06/01 05:14:43;;;;;;;5.30;4.80;;;16.20;60.50;;;;;;5025565;28;20193;-76
2021/06/01 05:17:09;;;;;;;6.10;5.57;;;16.30;60.50;;;;;;5023724;28;20188;-76
2021/06/01 05:19:34;;;;;;;5.87;5.37;;;16.30;60.20;;;;;;5024179;28;20193;-76
2021/06/01 05:22:00;;;;;;;6.33;4.50;;;16.40;59.90;;;;;;5022037;28;20263;-76
2021/06/01 05:24:26;;;;;;;4.63;4.23;;;16.50;60.10;;;;;;5024182;28;20236;-76
2021/06/01 05:26:51;;;;;;;7.30;4.97;;;16.50;60.30;;;;;;5026951;28;20575;-76
2021/06/01 05:29:17;;;;;;;6.30;5.00;;;16.60;60.00;;;;;;5023169;28;20220;-75
2021/06/01 05:31:57;;;;;;;5.80;4.90;;;16.60;60.00;;;;;;5023624;28;20180;-76
2021/06/01 05:34:24;;;;;;;5.23;4.73;;;16.70;60.00;;;;;;5023594;28;21051;-76
2021/06/01 05:36:51;;;;;;;5.33;4.87;;;16.70;60.00;;;;;;5020827;28;20451;-76
2021/06/01 05:39:17;;;;;;;5.77;5.27;;;16.80;59.90;;;;;;5026818;28;20512;-76
2021/06/01 05:41:43;;;;;;;4.73;4.33;;;16.80;60.00;;;;;;5024105;28;20997;-76
2021/06/01 05:44:08;;;;;;;7.47;5.20;;;17.00;59.90;;;;;;5023637;28;20180;-76
2021/06/01 05:46:34;;;;;;;5.80;5.30;;;17.00;59.80;;;;;;5028621;28;20545;-75
2021/06/01 05:49:01;;;;;;;5.07;4.57;;;17.10;59.70;;;;;;5022885;28;20678;-75
2021/06/01 05:51:35;;;;;;;5.83;5.30;;;17.10;59.90;;;;;;5022308;28;20243;-74
2021/06/01 05:54:06;;;;;;;5.80;5.30;;;17.10;59.80;;;;;;5026566;28;20436;-76
2021/06/01 05:56:33;;;;;;;6.17;5.70;;;17.10;59.70;;;;;;5021156;28;20501;-76
2021/06/01 05:58:58;;;;;;;5.83;5.33;;;17.10;59.80;;;;;;5025431;28;20458;-76
2021/06/01 06:01:24;;;;;;;5.67;5.17;;;17.20;59.80;;;;;;5023249;28;20509;-75
2021/06/01 06:03:50;;;;;;;5.07;4.67;;;17.30;59.60;;;;;;5022160;28;20257;-75
2021/06/01 06:06:15;;;;;;;5.47;4.97;;;17.50;59.40;;;;;;5016952;28;20192;-76
2021/06/01 06:08:42;;;;;;;4.77;4.47;;;17.40;59.30;;;;;;5019364;28;20220;-75
2021/06/01 06:11:08;;;;;;;5.23;4.83;;;17.60;59.00;;;;;;5008118;28;21424;-75
2021/06/01 06:13:34;;;;;;;6.00;4.70;;;17.70;58.90;;;;;;5008103;28;20443;-75
2021/06/01 06:15:59;;;;;;;4.47;4.17;;;17.60;58.80;;;;;;5018062;28;20197;-75
2021/06/01 06:18:42;;;;;;;4.97;4.57;;;17.60;58.90;;;;;;5021421;28;20477;-75
2021/06/01 06:21:10;;;;;;;5.60;5.20;;;17.80;59.00;;;;;;5021823;28;21299;-75
2021/06/01 06:23:40;;;;;;;5.37;4.90;;;17.90;59.10;;;;;;5026698;28;20430;-75
2021/06/01 06:26:06;;;;;;;6.27;4.73;;;18.10;58.70;;;;;;5022804;28;20439;-75
2021/06/01 06:28:32;;;;;;;4.40;4.10;;;17.90;58.60;;;;;;5024463;28;20466;-75
2021/06/01 06:30:58;;;;;;;4.93;4.53;;;18.10;58.90;;;;;;5022363;28;20435;-75
2021/06/01 06:33:24;;;;;;;6.53;4.60;;;18.20;58.70;;;;;;5026421;28;20427;-74
2021/06/01 06:35:51;;;;;;;4.90;4.43;;;18.20;58.50;;;;;;5027644;28;20473;-76
2021/06/01 06:38:19;;;;;;;5.00;4.60;;;18.20;58.50;;;;;;5023756;28;20459;-76
2021/06/01 06:40:59;;;;;;;5.30;4.80;;;18.30;58.50;;;;;;5026358;28;20427;-76
2021/06/01 06:43:25;;;;;;;4.90;4.60;;;18.40;58.70;;;;;;5025072;28;20465;-76
2021/06/01 06:45:51;;;;;;;5.10;4.70;;;18.60;58.30;;;;;;5025829;28;20443;-77
2021/06/01 06:48:16;;;;;;;4.50;4.10;;;18.70;58.10;;;;;;5027866;28;20212;-75
2021/06/01 06:50:42;;;;;;;4.87;4.57;;;18.70;58.30;;;;;;5026881;28;20202;-75
2021/06/01 06:53:08;;;;;;;5.60;5.00;;;18.90;58.20;;;;;;5027046;28;20192;-75
2021/06/01 06:55:33;;;;;;;4.90;4.50;;;19.10;58.00;;;;;;5027874;28;20193;-77
2021/06/01 06:57:59;;;;;;;4.80;4.50;;;19.20;57.50;;;;;;5027554;28;20642;-75
2021/06/01 07:00:25;;;;;;;4.93;4.53;;;19.40;57.60;;;;;;5027656;28;20192;-75
2021/06/01 07:02:52;;;;;;;5.53;4.80;;;19.50;57.40;;;;;;5023460;28;21307;-75
2021/06/01 07:05:19;;;;;;;5.33;4.93;;;19.60;57.20;;;;;;5026528;28;20180;-75
2021/06/01 07:07:49;;;;;;;4.60;4.30;;;19.70;56.10;;;;;;5025892;28;21290;-75
2021/06/01 07:10:15;;;;;;;4.80;4.50;;;19.70;55.60;;;;;;5027968;28;20438;-75
2021/06/01 07:12:43;;;;;;;5.67;5.20;;;19.80;55.40;;;;;;5025553;28;20455;-75
2021/06/01 07:15:21;;;;;;;4.70;4.40;;;19.70;54.90;;;;;;5026381;28;20857;-75
2021/06/01 07:17:47;;;;;;;5.53;4.00;;;19.70;54.60;;;;;;5029533;28;20462;-75
2021/06/01 07:20:15;;;;;;;5.07;4.67;;;19.80;54.90;;;;;;5023068;28;20856;-76
2021/06/01 07:22:41;;;;;;;5.70;4.50;;;19.90;55.00;;;;;;5024352;28;20474;-76
2021/06/01 07:25:08;;;;;;;4.53;4.17;;;19.90;53.40;;;;;;5026784;28;20819;-76
2021/06/01 07:27:33;;;;;;;5.07;4.67;;;20.00;53.50;;;;;;5024984;28;20780;-76
2021/06/01 07:29:59;;;;;;;5.07;4.67;;;20.00;53.50;;;;;;5025334;28;20478;-76
2021/06/01 07:32:25;;;;;;;4.27;3.97;;;20.10;53.50;;;;;;5022416;28;20295;-76
2021/06/01 07:34:50;;;;;;;4.57;4.27;;;20.20;53.40;;;;;;5026507;28;20228;-74
2021/06/01 07:37:16;;;;;;;6.67;4.63;;;20.30;53.30;;;;;;5026373;28;20204;-76
2021/06/01 07:39:43;;;;;;;4.60;4.20;;;20.30;53.30;;;;;;5025697;28;20314;-76
2021/06/01 07:42:09;;;;;;;4.53;4.13;;;20.40;53.50;;;;;;5023554;28;20570;-76
2021/06/01 07:44:34;;;;;;;4.93;4.53;;;20.40;53.60;;;;;;5025571;28;20522;-76
2021/06/01 07:47:01;;;;;;;5.43;3.90;;;20.40;54.00;;;;;;5026111;28;20435;-76
2021/06/01 07:49:26;;;;;;;5.23;4.47;;;20.50;53.50;;;;;;5025548;28;20216;-76
2021/06/01 07:51:52;;;;;;;5.00;4.60;;;20.60;53.80;;;;;;5026526;28;20453;-76
2021/06/01 07:54:18;;;;;;;5.13;4.30;;;20.70;53.70;;;;;;5025612;28;20200;-76
2021/06/01 07:56:43;;;;;;;4.57;4.27;;;20.70;52.90;;;;;;5023683;28;20245;-77
2021/06/01 07:59:09;;;;;;;7.03;4.77;;;20.80;52.90;;;;;;5024812;28;20298;-75
2021/06/01 08:01:35;;;;;;;4.80;4.30;;;20.90;53.20;;;;;;5024236;28;20220;-75
2021/06/01 08:04:00;;;;;;;4.70;4.30;;;21.00;52.90;;;;;;5024565;28;20253;-75
2021/06/01 08:06:29;;;;;;;5.73;4.37;;;21.10;52.50;;;;;;5026107;28;20201;-75
2021/06/01 08:08:55;;;;;;;4.43;4.13;;;21.20;52.00;;;;;;5022456;28;20232;-75
2021/06/01 08:11:21;;;;;;;3.70;3.50;;;21.30;52.40;;;;;;5025728;28;20973;-76
2021/06/01 08:13:47;;;;;;;4.33;4.03;;;21.40;52.90;;;;;;5018351;28;20198;-76
2021/06/01 08:16:13;;;;;;;5.90;4.57;;;21.50;52.60;;;;;;5024015;28;20216;-72
2021/06/01 08:18:44;;;;;;;4.70;3.90;;;21.70;53.80;;;;;;5024612;28;20212;-74
2021/06/01 08:21:13;;;;;;;6.53;4.63;;;21.70;53.50;;;;;;5025180;28;20195;-74
2021/06/01 08:23:39;;;;;;;4.80;4.40;;;21.80;52.90;;;;;;5023924;28;21300;-74
2021/06/01 08:26:05;;;;;;;4.90;4.43;;;22.00;53.10;;;;;;5022768;28;20435;-76
2021/06/01 08:28:33;;;;;;;12.13;4.43;;;22.10;52.70;;;;;;5021809;28;20874;-76
2021/06/01 08:31:00;;;;;;;5.03;4.67;;;22.20;51.80;;;;;;5021001;28;20501;-74
2021/06/01 08:33:25;;;;;;;4.70;3.90;;;22.40;52.10;;;;;;5023414;28;20435;-72
2021/06/01 08:35:51;;;;;;;5.37;4.87;;;22.50;51.40;;;;;;5025403;28;20451;-72
2021/06/01 08:38:20;;;;;;;5.10;4.67;;;22.50;51.30;;;;;;5025889;28;20220;-73
2021/06/01 08:40:50;;;;;;;4.70;4.30;;;22.50;51.10;;;;;;5023541;28;20196;-74
2021/06/01 08:43:26;;;;;;;4.67;4.27;;;22.60;51.90;;;;;;5023579;28;20520;-73
2021/06/01 08:45:56;;;;;;;6.23;5.30;;;22.60;51.10;;;;;;5024163;28;20469;-74
2021/06/01 08:48:23;;;;;;;5.27;4.87;;;22.60;50.80;;;;;;5023253;28;20586;-73
2021/06/01 08:50:51;;;;;;;5.13;4.73;;;22.60;51.00;;;;;;5023080;28;20435;-74
2021/06/01 08:53:18;;;;;;;4.80;4.50;;;22.70;50.50;;;;;;5005485;28;20470;-75
2021/06/01 08:55:44;;;;;;;5.00;4.60;;;22.70;50.90;;;;;;5016791;28;21001;-74
2021/06/01 08:58:18;;;;;;;5.73;4.87;;;22.80;50.30;;;;;;5016267;28;20466;-74
2021/06/01 09:00:44;;;;;;;6.60;4.80;;;23.00;50.20;;;;;;5010983;28;20443;-74
2021/06/01 09:03:31;;;;;;;5.00;4.50;;;23.00;50.30;;;;;;5014872;28;20476;-74
2021/06/01 09:06:21;;;;;;;5.63;5.13;;;23.00;49.80;;;;;;5016832;28;21509;-74
2021/06/01 09:22:35;;;;;;;5.57;5.00;;;23.20;47.80;;;;;;5017336;28;20932;-74
2021/06/01 09:25:19;;;;;;;5.83;4.50;;;23.20;47.50;;;;;;5016388;28;20562;-74
2021/06/01 09:27:53;;;;;;;6.87;4.60;;;23.30;47.80;;;;;;5016252;28;20468;-75
2021/06/01 09:30:54;;;;;;;5.57;4.97;;;23.40;47.40;;;;;;5018091;28;20823;-75
2021/06/01 09:33:20;;;;;;;5.20;4.70;;;23.60;47.00;;;;;;5030227;28;20513;-74
2021/06/01 09:36:03;;;;;;;5.53;5.00;;;23.80;46.30;;;;;;5019221;28;20708;-74
2021/06/01 09:38:40;;;;;;;4.87;4.47;;;23.90;45.90;;;;;;5019630;28;20766;-74
2021/06/01 09:41:07;;;;;;;5.93;5.40;;;24.00;46.20;;;;;;5016158;28;20451;-74
2021/06/01 09:43:53;;;;;;;7.70;5.03;;;24.10;46.30;;;;;;5019389;28;20571;-74
2021/06/01 09:46:28;;;;;;;7.83;4.47;;;24.10;44.90;;;;;;5017016;28;20454;-74
2021/06/01 09:49:15;;;;;;;4.87;4.57;;;24.10;44.60;;;;;;5022850;28;20461;-74
2021/06/01 09:51:46;;;;;;;5.97;5.53;;;24.00;44.30;;;;;;5013835;28;20534;-74
2021/06/01 09:54:37;;;;;;;10.37;6.70;;;24.00;44.20;;;;;;5013949;28;20504;-74
2021/06/01 09:57:16;;;;;;;7.83;6.17;;;24.10;44.00;;;;;;5020872;28;20449;-75
2021/06/01 09:59:42;;;;;;;5.13;4.73;;;24.30;43.50;;;;;;5014805;28;20481;-74
2021/06/01 10:02:31;;;;;;;5.87;5.13;;;24.40;43.60;;;;;;4996827;28;20553;-75
2021/06/01 10:05:34;;;;;;;6.10;4.73;;;24.50;44.00;;;;;;5018853;28;20566;-72
2021/06/01 10:08:16;;;;;;;9.63;4.30;;;24.50;43.20;;;;;;5018528;28;21290;-73
2021/06/01 10:11:04;;;;;;;5.03;4.73;;;24.50;43.00;;;;;;5022632;28;20423;-73
2021/06/01 10:13:33;;;;;;;7.97;4.50;;;24.60;43.10;;;;;;5023025;28;20434;-73
2021/06/01 10:16:01;;;;;;;6.73;6.13;;;24.60;42.90;;;;;;5016999;28;20447;-73
2021/06/01 10:18:30;;;;;;;5.10;4.60;;;24.50;43.20;;;;;;5020474;28;21124;-77
2021/06/01 10:20:58;;;;;;;7.50;4.90;;;24.50;42.90;;;;;;5023134;28;21056;-76
2021/06/01 10:23:30;;;;;;;9.40;4.37;;;24.50;42.80;;;;;;5008965;28;20545;-77
2021/06/01 10:25:56;;;;;;;4.53;4.23;;;24.50;42.90;;;;;;5020794;28;20540;-77
2021/06/01 10:28:36;;;;;;;4.73;4.33;;;24.50;42.10;;;;;;5019322;28;20473;-75
2021/06/01 10:31:05;;;;;;;5.60;5.20;;;24.50;42.50;;;;;;5012563;28;22911;-74
2021/06/01 10:33:38;;;;;;;5.07;4.77;;;24.70;43.40;;;;;;5014934;28;20530;-77
2021/06/01 10:52:13;;;;;;;5.33;4.10;;;25.50;40.70;;;;;;5018153;28;20435;-76
2021/06/01 10:54:38;;;;;;;5.07;4.67;;;25.40;41.00;;;;;;5016990;28;20443;-76
2021/06/01 10:57:05;;;;;;;4.20;3.90;;;25.40;40.00;;;;;;5012217;28;20449;-76
2021/06/01 11:02:19;;;;;;;5.73;4.40;;;25.50;40.60;;;;;;5009992;28;20463;-76
2021/06/01 11:05:07;;;;;;;4.70;4.30;;;25.40;41.30;;;;;;5014366;28;20439;-76
2021/06/01 11:07:51;;;;;;;4.83;4.43;;;25.40;40.00;;;;;;5018324;28;20455;-76
2021/06/01 11:10:40;;;;;;;7.30;4.80;;;25.50;39.80;;;;;;5016783;28;20435;-76
2021/06/01 11:13:19;;;;;;;5.17;4.67;;;25.50;39.70;;;;;;5016050;28;20817;-76
2021/06/01 11:15:55;;;;;;;4.87;4.47;;;25.60;39.30;;;;;;5015062;28;21131;-76
2021/06/01 11:18:24;;;;;;;7.07;4.93;;;25.60;39.40;;;;;;5018229;28;20985;-76
2021/06/01 11:35:20;;;;;;;4.50;4.20;;;26.10;39.40;;;;;;5017241;28;20556;-76
2021/06/01 11:40:24;;;;;;;6.43;4.40;;;26.10;39.50;;;;;;5012944;28;20459;-76
2021/06/01 11:43:06;;;;;;;4.97;3.77;;;26.30;39.10;;;;;;5014943;28;20516;-76
2021/06/01 11:53:45;;;;;;;4.80;4.50;;;26.20;38.50;;;;;;5014369;28;20443;-76
2021/06/01 11:56:11;;;;;;;4.53;4.23;;;26.20;38.20;;;;;;5010797;28;20450;-76
2021/06/01 12:02:05;;;;;;;5.80;4.50;;;26.20;38.00;;;;;;5012381;28;20223;-76
2021/06/01 12:05:07;;;;;;;4.50;4.10;;;26.10;37.80;;;;;;5016680;28;20461;-76
2021/06/01 12:18:42;;;;;;;4.57;4.17;;;26.20;38.30;;;;;;5019671;28;20508;-76
2021/06/01 12:21:13;;;;;;;5.43;4.77;;;26.30;38.30;;;;;;5019656;28;20500;-76
2021/06/01 12:23:40;;;;;;;4.63;4.23;;;26.40;37.10;;;;;;5017969;28;20499;-76
2021/06/01 12:26:18;;;;;;;4.47;4.17;;;26.50;38.40;;;;;;5017355;28;20888;-76
2021/06/01 12:32:03;;;;;;;4.37;4.03;;;26.40;36.50;;;;;;5019010;28;21275;-76
2021/06/01 12:43:56;;;;;;;9.23;4.17;;;26.70;36.50;;;;;;5018376;28;20551;-75
2021/06/01 13:19:45;;;;;;;4.73;4.30;;;26.80;35.30;;;;;;5017511;28;20465;-75
2021/06/01 13:39:13;;;;;;;4.33;4.03;;;26.80;34.40;;;;;;5024546;28;20490;-74
2021/06/01 13:47:11;;;;;;;5.00;4.60;;;26.80;35.40;;;;;;5025293;28;20446;-74
2021/06/01 14:55:06;;;;;;;5.17;4.70;;;27.40;36.00;;;;;;5027032;28;20457;-77
2021/06/01 16:30:11;;;;;;;4.37;4.07;;;29.50;33.80;;;;;;5026347;28;20465;-71
2021/06/01 16:43:42;;;;;;;5.50;5.00;;;29.70;34.90;;;;;;5023801;28;21275;-72
2021/06/01 17:11:21;;;;;;;4.60;4.30;;;36.10;27.90;;;;;;5027791;28;20486;-72
2021/06/01 17:14:03;;;;;;;4.30;4.10;;;36.70;27.70;;;;;;5024065;28;20425;-71
2021/06/01 17:16:49;;;;;;;4.40;4.10;;;36.50;27.20;;;;;;5026180;28;20473;-72
2021/06/01 17:20:13;;;;;;;5.13;4.57;;;34.60;28.10;;;;;;5025249;28;20450;-72
2021/06/01 17:35:32;;;;;;;4.70;4.30;;;29.40;33.30;;;;;;5021654;28;20830;-73
2021/06/01 17:38:01;;;;;;;5.43;4.47;;;28.80;34.30;;;;;;5029019;28;20501;-74
2021/06/01 17:40:27;;;;;;;4.00;3.70;;;28.60;34.40;;;;;;5022482;28;20521;-74
2021/06/01 17:43:00;;;;;;;6.33;4.90;;;28.50;34.80;;;;;;5022740;28;20570;-74
2021/06/01 17:45:26;;;;;;;4.50;4.10;;;28.40;35.20;;;;;;5023638;28;20272;-74
2021/06/01 17:47:58;;;;;;;4.60;4.20;;;28.10;35.50;;;;;;5021526;28;21065;-72
2021/06/01 17:50:24;;;;;;;7.30;5.10;;;27.80;36.00;;;;;;5022910;28;21282;-73
2021/06/01 17:52:54;;;;;;;5.00;4.50;;;27.50;36.40;;;;;;5028519;28;20434;-75
2021/06/01 17:55:22;;;;;;;7.93;6.00;;;27.50;37.40;;;;;;5022844;28;20816;-76
2021/06/01 17:57:49;;;;;;;12.20;6.83;;;27.40;37.00;;;;;;5023813;28;20541;-73
2021/06/01 18:00:16;;;;;;;8.30;7.13;;;27.30;37.00;;;;;;5022198;28;20726;-72
2021/06/01 18:02:46;;;;;;;6.53;5.97;;;27.30;36.90;;;;;;5014832;28;20947;-73
2021/06/01 18:05:13;;;;;;;7.10;6.40;;;27.10;37.40;;;;;;5022579;28;20439;-72
2021/06/01 18:07:50;;;;;;;8.93;6.57;;;27.10;37.40;;;;;;5008270;28;20451;-72
2021/06/01 19:25:25;;;;;;;5.10;4.70;;;25.30;41.50;;;;;;5008707;28;20455;-76
2021/06/01 19:50:29;;;;;;;5.80;5.20;;;24.90;43.30;;;;;;5020326;28;20482;-76
2021/06/01 19:52:56;;;;;;;5.60;5.10;;;24.90;43.40;;;;;;5023001;28;20987;-77
2021/06/01 19:55:24;;;;;;;5.33;4.93;;;24.80;43.60;;;;;;5021153;28;20984;-77
2021/06/01 19:57:51;;;;;;;6.00;5.50;;;24.80;43.80;;;;;;5022515;28;20843;-76
2021/06/01 20:00:17;;;;;;;5.30;4.90;;;24.70;43.90;;;;;;5022915;28;20439;-76
2021/06/01 20:02:44;;;;;;;6.07;5.07;;;24.60;44.20;;;;;;5023566;28;20466;-77
2021/06/01 20:05:14;;;;;;;5.53;4.97;;;24.60;44.50;;;;;;5005195;28;20462;-76
2021/06/01 20:07:41;;;;;;;5.43;5.00;;;24.50;44.40;;;;;;5020342;28;20561;-76
2021/06/01 20:10:09;;;;;;;5.90;5.40;;;24.50;44.70;;;;;;5003549;28;20548;-76
2021/06/01 20:12:35;;;;;;;6.70;5.60;;;24.40;45.00;;;;;;5021116;28;20447;-76
2021/06/01 20:15:01;;;;;;;6.33;5.83;;;24.40;45.10;;;;;;5020196;28;20446;-77
2021/06/01 20:17:58;;;;;;;5.60;5.20;;;24.30;45.20;;;;;;5025369;28;20199;-77
2021/06/01 20:20:25;;;;;;;7.33;6.73;;;24.20;45.60;;;;;;5015619;28;21157;-76
2021/06/01 20:22:53;;;;;;;6.33;5.80;;;24.20;45.70;;;;;;5020805;28;20470;-76
2021/06/01 20:25:21;;;;;;;7.23;6.50;;;24.10;45.60;;;;;;5018683;28;20542;-76
2021/06/01 20:27:50;;;;;;;8.07;5.87;;;24.00;45.70;;;;;;5022122;28;20455;-76
2021/06/01 20:33:18;;;;;;;7.23;5.50;;;23.90;46.10;;;;;;5017619;28;20810;-77
2021/06/01 20:35:50;;;;;;;5.93;5.20;;;23.80;46.30;;;;;;5021338;28;20792;-76